Meyersdale, PA (15552)

3:59 AM EST on December 10, 2016 (GMT -0500)
Highpoint | | Change Station

Elev 2293 ft 39.78 °N, 79.10 °W | Updated 3 seconds ago

Overcast
Overcast
19.2 °F
Feels Like 10 °F
N
7.6
Wind Variable Wind from North
Gusts 9.2 mph

Today
High -- | Low -- °F
--% Chance of Precip.
Yesterday
High -- | Low -- °F
Precip. -- in
Pressure 30.29 in
Visibility 4.0 miles
Clouds Overcast 600 ft
Windchill 10 °F
Dew Point 10 °F
Humidity 67%
Rainfall 0.00 in
Snow Depth Not available.
7:26 AM 4:51 PM
Waxing Gibbous, 82% visible
METAR K2G4 100850Z AUTO 27010G14KT 242V312 4SM BR OVC006 M10/M10 A3029 RMK AO1
Pressure 30.29 in
Visibility 4.0 miles
Clouds Overcast 600 ft
Windchill 10 °F
Dew Point 10 °F
Humidity 67%
Rainfall 0.00 in
Snow Depth Not available.
7:26 AM 4:51 PM
Waxing Gibbous, 82% visible
METAR K2G4 100850Z AUTO 27010G14KT 242V312 4SM BR OVC006 M10/M10 A3029 RMK AO1

10-Day Weather Forecast

Almanac

Astronomy

Dec. 10, 2016 Rise Set
Actual Time
Civil Twilight
Nautical Twilight
Astronomical Twilight
Moon
Length of Visible Light
Length of Day
Tomorrow will be .
, % of the Moon is Illuminated

Today's Extremes

State Highs State Lows

Community

WunderPhotos

Upload Photos

1,956,538 photos uploaded!

WunderBlog® & News

Nearby

Air Quality

  Air Quality AQ Index Pollutant
Not available.

Snow Depth

Station Depth Elevation

Earthquake Activity

City Distance Mag. Time & Date
Minimum magnitude displayed is 2.5.

Coastal Water Temperatures

Place Temperature

Stations

Nearby Weather Stations

Station Location Temp. Windchill Dew Point Humidity Wind Precip. Elev Updated Type
                   

Watches & Warnings

There are currently no watches in effect.